sensor_id;sensor_type;location;lat;lon;timestamp;pressure;altitude;pressure_sealevel;temperature;humidity
33949;BME280;20229;49.856;19.030;2023-04-01T00:00:13;99848.84;;;9.81;73.96
33949;BME280;20229;49.856;19.030;2023-04-01T00:05:31;99836.41;;;9.77;75.00
33949;BME280;20229;49.856;19.030;2023-04-01T00:10:45;99848.50;;;9.73;74.96
33949;BME280;20229;49.856;19.030;2023-04-01T00:15:59;99850.23;;;9.74;75.10
33949;BME280;20229;49.856;19.030;2023-04-01T00:21:15;99838.27;;;9.76;74.45
33949;BME280;20229;49.856;19.030;2023-04-01T00:26:29;99838.73;;;9.83;74.92
33949;BME280;20229;49.856;19.030;2023-04-01T00:31:43;99834.80;;;9.87;74.76
33949;BME280;20229;49.856;19.030;2023-04-01T00:36:57;99829.82;;;9.94;75.06
33949;BME280;20229;49.856;19.030;2023-04-01T00:42:11;99815.87;;;9.98;74.65
33949;BME280;20229;49.856;19.030;2023-04-01T00:47:26;99837.48;;;10.01;74.64
33949;BME280;20229;49.856;19.030;2023-04-01T00:52:41;99834.08;;;9.98;74.62
33949;BME280;20229;49.856;19.030;2023-04-01T00:57:57;99839.42;;;9.99;74.81
33949;BME280;20229;49.856;19.030;2023-04-01T01:03:12;99844.88;;;9.99;74.42
33949;BME280;20229;49.856;19.030;2023-04-01T01:08:39;99838.47;;;10.00;74.76
33949;BME280;20229;49.856;19.030;2023-04-01T01:14:07;99830.49;;;9.97;74.80
33949;BME280;20229;49.856;19.030;2023-04-01T01:19:32;99846.84;;;9.97;75.16
33949;BME280;20229;49.856;19.030;2023-04-01T01:24:56;99846.84;;;9.97;75.00
33949;BME280;20229;49.856;19.030;2023-04-01T01:30:48;99827.77;;;9.97;74.83
33949;BME280;20229;49.856;19.030;2023-04-01T01:36:05;99832.02;;;10.01;75.25
33949;BME280;20229;49.856;19.030;2023-04-01T01:41:22;99837.48;;;10.01;75.71
33949;BME280;20229;49.856;19.030;2023-04-01T01:46:38;99836.29;;;10.05;75.23
33949;BME280;20229;49.856;19.030;2023-04-01T01:51:52;99837.15;;;10.06;75.62
33949;BME280;20229;49.856;19.030;2023-04-01T01:57:09;99837.94;;;10.08;75.48
33949;BME280;20229;49.856;19.030;2023-04-01T02:02:25;99839.02;;;10.05;76.20
33949;BME280;20229;49.856;19.030;2023-04-01T02:07:49;99844.27;;;10.09;76.09
33949;BME280;20229;49.856;19.030;2023-04-01T02:18:36;99849.83;;;10.07;76.78
33949;BME280;20229;49.856;19.030;2023-04-01T02:23:52;99851.78;;;10.05;77.02
33949;BME280;20229;49.856;19.030;2023-04-01T02:29:08;99859.09;;;10.04;76.70
33949;BME280;20229;49.856;19.030;2023-04-01T02:34:23;99864.42;;;10.06;76.54
33949;BME280;20229;49.856;19.030;2023-04-01T02:39:39;99847.20;;;10.05;76.81
33949;BME280;20229;49.856;19.030;2023-04-01T02:44:53;99860.08;;;10.03;76.86
33949;BME280;20229;49.856;19.030;2023-04-01T02:50:07;99863.02;;;10.00;76.27
33949;BME280;20229;49.856;19.030;2023-04-01T02:55:21;99857.75;;;9.97;76.73
33949;BME280;20229;49.856;19.030;2023-04-01T03:00:35;99858.70;;;9.96;76.87
33949;BME280;20229;49.856;19.030;2023-04-01T03:05:50;99861.34;;;9.98;76.94
33949;BME280;20229;49.856;19.030;2023-04-01T03:11:06;99860.16;;;10.02;77.46
33949;BME280;20229;49.856;19.030;2023-04-01T03:16:20;99869.99;;;10.04;76.66
33949;BME280;20229;49.856;19.030;2023-04-01T03:21:34;99870.66;;;10.08;77.19
33949;BME280;20229;49.856;19.030;2023-04-01T03:26:48;99875.25;;;10.08;77.48
33949;BME280;20229;49.856;19.030;2023-04-01T03:32:01;99879.92;;;10.05;78.65
33949;BME280;20229;49.856;19.030;2023-04-01T03:37:15;99869.41;;;9.99;80.83
33949;BME280;20229;49.856;19.030;2023-04-01T03:42:30;99881.51;;;9.95;81.25
33949;BME280;20229;49.856;19.030;2023-04-01T03:47:45;99875.51;;;9.90;81.88
33949;BME280;20229;49.856;19.030;2023-04-01T03:52:59;99871.13;;;9.88;82.28
33949;BME280;20229;49.856;19.030;2023-04-01T03:58:14;99869.46;;;9.85;81.79
33949;BME280;20229;49.856;19.030;2023-04-01T04:03:27;99866.86;;;9.84;81.71
33949;BME280;20229;49.856;19.030;2023-04-01T04:08:44;99862.67;;;9.78;82.42
33949;BME280;20229;49.856;19.030;2023-04-01T04:14:00;99868.34;;;9.75;81.76
33949;BME280;20229;49.856;19.030;2023-04-01T04:19:14;99868.56;;;9.72;83.03
33949;BME280;20229;49.856;19.030;2023-04-01T04:24:28;99874.88;;;9.72;82.86
33949;BME280;20229;49.856;19.030;2023-04-01T04:29:42;99875.95;;;9.70;83.79
33949;BME280;20229;49.856;19.030;2023-04-01T04:34:56;99868.84;;;9.67;83.06
33949;BME280;20229;49.856;19.030;2023-04-01T04:40:10;99867.97;;;9.67;83.30
33949;BME280;20229;49.856;19.030;2023-04-01T04:45:24;99866.03;;;9.69;83.05
33949;BME280;20229;49.856;19.030;2023-04-01T04:50:40;99862.99;;;9.73;82.50
33949;BME280;20229;49.856;19.030;2023-04-01T04:55:54;99852.25;;;9.85;81.99
33949;BME280;20229;49.856;19.030;2023-04-01T05:01:13;99859.90;;;9.92;81.20
33949;BME280;20229;49.856;19.030;2023-04-01T05:06:27;99869.02;;;10.05;80.63
33949;BME280;20229;49.856;19.030;2023-04-01T05:11:45;99874.19;;;10.23;80.08
33949;BME280;20229;49.856;19.030;2023-04-01T05:16:59;99867.91;;;10.35;79.42
33949;BME280;20229;49.856;19.030;2023-04-01T05:22:13;99868.15;;;10.32;79.22
33949;BME280;20229;49.856;19.030;2023-04-01T05:27:26;99872.16;;;10.26;79.21
33949;BME280;20229;49.856;19.030;2023-04-01T05:32:40;99875.18;;;10.22;78.88
33949;BME280;20229;49.856;19.030;2023-04-01T05:37:54;99882.26;;;10.24;79.20
33949;BME280;20229;49.856;19.030;2023-04-01T05:43:09;99888.00;;;10.34;78.81
33949;BME280;20229;49.856;19.030;2023-04-01T05:48:23;99887.27;;;10.45;78.64
33949;BME280;20229;49.856;19.030;2023-04-01T05:53:37;99892.76;;;10.58;78.48
33949;BME280;20229;49.856;19.030;2023-04-01T05:58:52;99893.54;;;10.72;78.34
33949;BME280;20229;49.856;19.030;2023-04-01T06:04:06;99891.36;;;10.90;77.38
33949;BME280;20229;49.856;19.030;2023-04-01T06:09:28;99887.65;;;11.04;77.02
33949;BME280;20229;49.856;19.030;2023-04-01T06:59:16;99910.96;;;12.68;71.82
33949;BME280;20229;49.856;19.030;2023-04-01T07:04:37;99902.41;;;12.73;70.60
33949;BME280;20229;49.856;19.030;2023-04-01T07:09:56;99904.28;;;12.72;70.56
33949;BME280;20229;49.856;19.030;2023-04-01T07:15:24;99907.96;;;12.60;71.15
33949;BME280;20229;49.856;19.030;2023-04-01T07:20:40;99913.43;;;12.60;71.56
33949;BME280;20229;49.856;19.030;2023-04-01T07:25:59;99912.09;;;12.65;70.82
33949;BME280;20229;49.856;19.030;2023-04-01T08:14:53;99947.28;;;13.63;68.07
33949;BME280;20229;49.856;19.030;2023-04-01T08:25:55;99944.41;;;13.42;68.40
33949;BME280;20229;49.856;19.030;2023-04-01T08:31:12;99939.05;;;13.29;67.78
33949;BME280;20229;49.856;19.030;2023-04-01T08:36:35;99946.26;;;13.30;68.04
33949;BME280;20229;49.856;19.030;2023-04-01T08:41:59;99949.59;;;13.23;68.61
33949;BME280;20229;49.856;19.030;2023-04-01T08:58:22;99953.40;;;12.98;70.52
33949;BME280;20229;49.856;19.030;2023-04-01T09:32:16;99956.99;;;13.33;70.54
33949;BME280;20229;49.856;19.030;2023-04-01T09:37:36;99967.23;;;13.54;70.17
33949;BME280;20229;49.856;19.030;2023-04-01T09:43:06;99969.98;;;13.76;69.43
33949;BME280;20229;49.856;19.030;2023-04-01T11:22:08;99986.69;;;15.57;65.88
33949;BME280;20229;49.856;19.030;2023-04-01T11:32:17;99978.43;;;15.77;65.92
33949;BME280;20229;49.856;19.030;2023-04-01T11:43:28;99980.86;;;15.71;67.07
33949;BME280;20229;49.856;19.030;2023-04-01T12:21:37;99976.13;;;16.83;64.34
33949;BME280;20229;49.856;19.030;2023-04-01T12:38:03;99985.82;;;17.06;62.26
33949;BME280;20229;49.856;19.030;2023-04-01T12:49:42;100001.45;;;16.57;61.32
33949;BME280;20229;49.856;19.030;2023-04-01T13:00:11;100001.80;;;15.93;62.70
33949;BME280;20229;49.856;19.030;2023-04-01T13:11:18;100008.89;;;15.44;65.14
33949;BME280;20229;49.856;19.030;2023-04-01T13:16:27;100015.95;;;15.37;65.60
33949;BME280;20229;49.856;19.030;2023-04-01T13:27:17;100017.90;;;15.46;66.32
33949;BME280;20229;49.856;19.030;2023-04-01T13:32:46;100025.28;;;15.45;65.97
33949;BME280;20229;49.856;19.030;2023-04-01T13:43:58;100038.74;;;15.06;68.07
33949;BME280;20229;49.856;19.030;2023-04-01T14:38:22;100027.88;;;15.47;68.95
33949;BME280;20229;49.856;19.030;2023-04-01T14:43:48;100025.13;;;15.47;68.53
33949;BME280;20229;49.856;19.030;2023-04-01T14:49:39;100035.06;;;15.17;68.22
33949;BME280;20229;49.856;19.030;2023-04-01T14:54:56;100029.92;;;14.92;68.81
33949;BME280;20229;49.856;19.030;2023-04-01T15:00:16;100033.90;;;14.67;68.67
33949;BME280;20229;49.856;19.030;2023-04-01T15:44:04;100050.27;;;14.23;68.20
33949;BME280;20229;49.856;19.030;2023-04-01T15:49:32;100057.41;;;14.15;68.40
33949;BME280;20229;49.856;19.030;2023-04-01T16:11:15;100073.48;;;13.97;69.89
33949;BME280;20229;49.856;19.030;2023-04-01T16:16:44;100078.46;;;13.92;69.86
33949;BME280;20229;49.856;19.030;2023-04-01T16:22:06;100080.95;;;13.83;69.44
33949;BME280;20229;49.856;19.030;2023-04-01T16:32:56;100096.00;;;13.67;70.98
33949;BME280;20229;49.856;19.030;2023-04-01T16:38:51;100109.53;;;13.46;71.44
33949;BME280;20229;49.856;19.030;2023-04-01T16:49:42;100129.15;;;13.28;70.78
33949;BME280;20229;49.856;19.030;2023-04-01T16:55:12;100133.69;;;13.16;71.68
33949;BME280;20229;49.856;19.030;2023-04-01T17:00:27;100134.50;;;13.06;72.34
33949;BME280;20229;49.856;19.030;2023-04-01T17:11:21;100157.82;;;12.87;71.81
33949;BME280;20229;49.856;19.030;2023-04-01T17:17:18;100172.41;;;12.75;73.07
33949;BME280;20229;49.856;19.030;2023-04-01T17:22:36;100164.76;;;12.67;74.18
33949;BME280;20229;49.856;19.030;2023-04-01T17:28:04;100176.73;;;12.54;75.65
33949;BME280;20229;49.856;19.030;2023-04-01T17:33:26;100197.54;;;12.43;76.42
33949;BME280;20229;49.856;19.030;2023-04-01T17:38:54;100213.77;;;12.34;76.31
33949;BME280;20229;49.856;19.030;2023-04-01T17:44:22;100219.67;;;12.28;76.85
33949;BME280;20229;49.856;19.030;2023-04-01T18:06:42;100239.30;;;11.82;78.76
33949;BME280;20229;49.856;19.030;2023-04-01T18:22:58;100257.25;;;11.59;80.58
33949;BME280;20229;49.856;19.030;2023-04-01T18:28:18;100264.13;;;11.52;81.99
33949;BME280;20229;49.856;19.030;2023-04-01T18:33:46;100266.81;;;11.39;82.43
33949;BME280;20229;49.856;19.030;2023-04-01T18:39:58;100273.87;;;11.29;83.11
33949;BME280;20229;49.856;19.030;2023-04-01T19:01:27;100316.57;;;11.03;85.38
33949;BME280;20229;49.856;19.030;2023-04-01T19:06:53;100313.04;;;11.00;85.17
33949;BME280;20229;49.856;19.030;2023-04-01T19:12:22;100321.35;;;10.99;85.87
33949;BME280;20229;49.856;19.030;2023-04-01T19:28:52;100324.37;;;10.80;86.88
33949;BME280;20229;49.856;19.030;2023-04-01T19:50:59;100346.97;;;10.53;88.75
33949;BME280;20229;49.856;19.030;2023-04-01T19:56:20;100350.88;;;10.49;88.51
33949;BME280;20229;49.856;19.030;2023-04-01T20:12:46;100359.62;;;10.40;89.92
33949;BME280;20229;49.856;19.030;2023-04-01T20:34:30;100375.07;;;10.25;91.03
33949;BME280;20229;49.856;19.030;2023-04-01T20:56:40;100387.76;;;10.11;92.05
33949;BME280;20229;49.856;19.030;2023-04-01T21:07:27;100384.41;;;10.05;92.94
33949;BME280;20229;49.856;19.030;2023-04-01T21:18:19;100394.44;;;10.05;93.26
33949;BME280;20229;49.856;19.030;2023-04-01T21:35:06;100401.30;;;9.96;94.03
33949;BME280;20229;49.856;19.030;2023-04-01T21:56:49;100408.18;;;9.88;94.65
33949;BME280;20229;49.856;19.030;2023-04-01T22:18:32;100421.99;;;9.85;94.25
33949;BME280;20229;49.856;19.030;2023-04-01T22:30:01;100431.22;;;9.82;95.17
33949;BME280;20229;49.856;19.030;2023-04-01T22:51:45;100437.29;;;9.71;95.33
33949;BME280;20229;49.856;19.030;2023-04-01T22:57:10;100439.30;;;9.68;95.51
33949;BME280;20229;49.856;19.030;2023-04-01T23:13:54;100450.66;;;9.60;95.97
33949;BME280;20229;49.856;19.030;2023-04-01T23:24:44;100458.12;;;9.56;96.24
33949;BME280;20229;49.856;19.030;2023-04-01T23:30:02;100467.27;;;9.55;96.22
33949;BME280;20229;49.856;19.030;2023-04-01T23:35:16;100465.69;;;9.51;96.85
33949;BME280;20229;49.856;19.030;2023-04-01T23:40:31;100478.50;;;9.49;96.33
33949;BME280;20229;49.856;19.030;2023-04-01T23:45:45;100474.03;;;9.48;96.41
33949;BME280;20229;49.856;19.030;2023-04-01T23:51:00;100477.63;;;9.49;96.15
33949;BME280;20229;49.856;19.030;2023-04-01T23:56:17;100473.39;;;9.43;96.85
